createdAt,value
2016-06-17T00:00:08.822Z,985.93
2016-06-17T00:01:08.873Z,985.91
2016-06-17T00:02:08.908Z,985.85
2016-06-17T00:03:08.942Z,985.77
2016-06-17T00:04:08.993Z,985.75
2016-06-17T00:05:09.059Z,985.71
2016-06-17T00:06:09.093Z,985.7
2016-06-17T00:07:09.143Z,985.73
2016-06-17T00:08:09.163Z,985.71
2016-06-17T00:09:09.197Z,985.77
2016-06-17T00:10:09.248Z,985.82
2016-06-17T00:11:09.298Z,985.87
2016-06-17T00:12:09.333Z,985.92
2016-06-17T00:13:09.367Z,985.92
2016-06-17T00:14:09.417Z,985.97
2016-06-17T00:15:09.453Z,985.99
2016-06-17T00:16:09.503Z,986.01
2016-06-17T00:17:09.538Z,986.03
2016-06-17T00:18:09.588Z,986.06
2016-06-17T00:19:09.623Z,986.07
2016-06-17T00:20:09.673Z,986.08
2016-06-17T00:21:09.708Z,986.06
2016-06-17T00:22:09.758Z,986.02
2016-06-17T00:23:09.793Z,986.02
2016-06-17T00:24:09.843Z,985.98
2016-06-17T00:25:09.878Z,985.92
2016-06-17T00:26:09.928Z,985.92
2016-06-17T00:27:09.963Z,985.9
2016-06-17T00:28:09.998Z,985.91
2016-06-17T00:29:10.047Z,985.91
2016-06-17T00:30:10.083Z,985.92
2016-06-17T00:31:10.133Z,985.92
2016-06-17T00:32:10.168Z,985.9
2016-06-17T00:33:10.218Z,985.86
2016-06-17T00:34:10.253Z,985.89
2016-06-17T00:35:10.287Z,985.9
2016-06-17T00:36:10.338Z,985.87
2016-06-17T00:37:10.372Z,985.88
2016-06-17T00:38:10.423Z,985.89
2016-06-17T00:39:10.457Z,985.86
2016-06-17T00:40:10.507Z,985.85
2016-06-17T00:41:10.558Z,985.82
2016-06-17T00:42:10.593Z,985.76
2016-06-17T00:43:10.628Z,985.78
2016-06-17T00:44:10.678Z,985.78
2016-06-17T00:45:10.759Z,985.77
2016-06-17T00:46:10.763Z,985.79
2016-06-17T00:47:10.798Z,985.76
2016-06-17T00:48:10.832Z,985.73
2016-06-17T00:49:10.882Z,985.7
2016-06-17T00:50:10.916Z,985.68
2016-06-17T00:51:10.966Z,985.68
2016-06-17T00:52:11.000Z,985.68
2016-06-17T00:53:11.050Z,985.71
2016-06-17T00:54:11.085Z,985.71
2016-06-17T00:55:11.134Z,985.71
2016-06-17T00:56:11.169Z,985.7
2016-06-17T00:57:11.220Z,985.65
2016-06-17T00:58:11.269Z,985.67
2016-06-17T00:59:11.305Z,985.61
2016-06-17T01:00:11.339Z,985.61
2016-06-17T01:01:11.373Z,985.62
2016-06-17T01:02:11.424Z,985.59
2016-06-17T01:03:11.458Z,985.6
2016-06-17T01:04:11.508Z,985.63
2016-06-17T01:05:11.543Z,985.62
2016-06-17T01:06:11.594Z,985.61
2016-06-17T01:07:11.644Z,985.59
2016-06-17T01:08:11.664Z,985.62
2016-06-17T01:09:11.714Z,985.62
2016-06-17T01:10:11.748Z,985.69
2016-06-17T01:11:11.799Z,985.75
2016-06-17T01:12:11.833Z,985.77
2016-06-17T01:13:11.883Z,985.78
2016-06-17T01:14:12.012Z,985.83
2016-06-17T01:15:11.953Z,985.85
2016-06-17T01:16:12.003Z,985.86
2016-06-17T01:17:12.053Z,985.83
2016-06-17T01:18:12.088Z,985.78
2016-06-17T01:19:12.138Z,985.75
2016-06-17T01:20:12.174Z,985.8
2016-06-17T01:21:12.224Z,985.78
2016-06-17T01:22:12.258Z,985.73
2016-06-17T01:23:12.294Z,985.74
2016-06-17T01:24:12.343Z,985.7
2016-06-17T01:25:12.487Z,985.67
2016-06-17T01:26:12.429Z,985.76
2016-06-17T01:27:12.463Z,985.69
2016-06-17T01:28:12.513Z,985.76
2016-06-17T01:29:12.548Z,985.74
2016-06-17T01:30:12.583Z,985.73
2016-06-17T01:31:12.633Z,985.75
2016-06-17T01:32:12.700Z,985.73
2016-06-17T01:33:12.718Z,985.72
2016-06-17T01:34:12.753Z,985.72
2016-06-17T01:35:12.804Z,985.65
2016-06-17T01:36:12.839Z,985.61
2016-06-17T01:37:12.889Z,985.53
2016-06-17T01:38:12.924Z,985.53
2016-06-17T01:39:12.973Z,985.45
2016-06-17T01:40:13.008Z,985.39
2016-06-17T01:41:13.043Z,985.38
2016-06-17T01:42:13.093Z,985.32
2016-06-17T01:43:13.129Z,985.3
2016-06-17T01:44:13.178Z,985.25
2016-06-17T01:45:13.228Z,985.2
2016-06-17T01:46:13.264Z,985.16
2016-06-17T01:47:13.299Z,985.14
2016-06-17T01:48:13.332Z,985.02
2016-06-17T01:49:13.383Z,985.07
2016-06-17T01:50:13.418Z,985.11
2016-06-17T01:51:13.484Z,985.18
2016-06-17T01:52:13.503Z,985.2
2016-06-17T01:53:13.553Z,985.29
2016-06-17T01:54:13.587Z,985.31
2016-06-17T01:55:13.638Z,985.34
2016-06-17T01:56:13.676Z,985.31
2016-06-17T01:57:13.712Z,985.25
2016-06-17T01:58:13.763Z,985.21
2016-06-17T01:59:13.799Z,985.25
2016-06-17T02:00:13.851Z,985.24
2016-06-17T02:01:13.886Z,985.25
2016-06-17T02:02:13.937Z,985.27
2016-06-17T02:03:13.972Z,985.29
2016-06-17T02:04:14.006Z,985.32
2016-06-17T02:05:14.057Z,985.38
2016-06-17T02:06:14.093Z,985.41
2016-06-17T02:07:14.143Z,985.35
2016-06-17T02:08:14.194Z,985.42
2016-06-17T02:09:14.229Z,985.4
2016-06-17T02:10:14.264Z,985.47
2016-06-17T02:11:14.315Z,985.48
2016-06-17T02:12:14.397Z,985.47
2016-06-17T02:13:14.383Z,985.5
2016-06-17T02:14:14.434Z,985.43
2016-06-17T02:15:14.484Z,985.44
2016-06-17T02:16:14.519Z,985.43
2016-06-17T02:17:14.554Z,985.39
2016-06-17T02:18:14.604Z,985.35
2016-06-17T02:19:14.639Z,985.35
2016-06-17T02:20:14.689Z,985.39
2016-06-17T02:21:14.725Z,985.38
2016-06-17T02:22:14.758Z,985.4
2016-06-17T02:23:14.809Z,985.41
2016-06-17T02:24:14.860Z,985.47
2016-06-17T02:25:14.894Z,985.46
2016-06-17T02:26:14.929Z,985.49
2016-06-17T02:27:14.980Z,985.49
2016-06-17T02:28:15.013Z,985.41
2016-06-17T02:29:15.111Z,985.3
2016-06-17T02:30:15.099Z,985.2
2016-06-17T02:31:15.196Z,985.18
2016-06-17T02:32:15.185Z,985.1
2016-06-17T02:33:15.218Z,985.13
2016-06-17T02:34:15.253Z,985.12
2016-06-17T02:35:15.366Z,985.21
2016-06-17T02:36:15.355Z,985.26
2016-06-17T02:37:15.451Z,985.33
2016-06-17T02:38:15.486Z,985.49
2016-06-17T02:39:15.490Z,985.54
2016-06-17T02:40:15.508Z,985.57
2016-06-17T02:41:15.622Z,985.61
2016-06-17T02:42:15.656Z,985.66
2016-06-17T02:43:15.628Z,985.63
2016-06-17T02:44:15.679Z,985.55
2016-06-17T02:45:15.714Z,985.52
2016-06-17T02:46:15.748Z,985.52
2016-06-17T02:47:15.814Z,985.48
2016-06-17T02:48:15.833Z,985.48
2016-06-17T02:49:15.883Z,985.49
2016-06-17T02:50:15.918Z,985.52
2016-06-17T02:51:15.984Z,985.45
2016-06-17T02:52:16.003Z,985.5
2016-06-17T02:53:16.100Z,985.46
2016-06-17T02:54:16.089Z,985.49
2016-06-17T02:55:16.123Z,985.44
2016-06-17T02:56:16.173Z,985.46
2016-06-17T02:57:16.208Z,985.41
2016-06-17T02:58:16.242Z,985.41
2016-06-17T02:59:16.293Z,985.37
2016-06-17T03:00:16.327Z,985.34
2016-06-17T03:01:16.378Z,985.36
2016-06-17T03:02:16.413Z,985.3
2016-06-17T03:03:16.463Z,985.27
2016-06-17T03:04:16.498Z,985.28
2016-06-17T03:05:16.533Z,985.31
2016-06-17T03:06:16.614Z,985.26
2016-06-17T03:07:16.633Z,985.27
2016-06-17T03:08:16.652Z,985.33
2016-06-17T03:09:16.702Z,985.33
2016-06-17T03:10:16.737Z,985.33
2016-06-17T03:11:16.787Z,985.44
2016-06-17T03:12:16.823Z,985.36
2016-06-17T03:13:16.872Z,985.36
2016-06-17T03:14:16.908Z,985.33
2016-06-17T03:15:16.958Z,985.33
2016-06-17T03:16:16.993Z,985.36
2016-06-17T03:17:17.027Z,985.35
2016-06-17T03:18:17.077Z,985.33
2016-06-17T03:19:17.112Z,985.36
2016-06-17T03:20:17.162Z,985.38
2016-06-17T03:21:17.197Z,985.42
2016-06-17T03:22:17.248Z,985.4
2016-06-17T03:23:17.282Z,985.45
2016-06-17T03:24:17.317Z,985.5
2016-06-17T03:25:17.399Z,985.49
2016-06-17T03:26:17.402Z,985.49
2016-06-17T03:27:17.453Z,985.51
2016-06-17T03:28:17.487Z,985.48
2016-06-17T03:29:17.553Z,985.43
2016-06-17T03:30:17.572Z,985.45
2016-06-17T03:31:17.606Z,985.37
2016-06-17T03:32:17.735Z,985.3
2016-06-17T03:33:17.691Z,985.27
2016-06-17T03:34:17.757Z,985.2
2016-06-17T03:35:17.778Z,985.22
2016-06-17T03:36:17.811Z,985.28
2016-06-17T03:37:17.955Z,985.2
2016-06-17T03:38:17.897Z,985.25
2016-06-17T03:39:17.932Z,985.19
2016-06-17T03:40:17.981Z,985.17
2016-06-17T03:41:18.016Z,985.18
2016-06-17T03:42:18.051Z,985.12
2016-06-17T03:43:18.101Z,985.13
2016-06-17T03:44:18.168Z,985.12
2016-06-17T03:45:18.187Z,985.17
2016-06-17T03:46:18.222Z,985.16
2016-06-17T03:47:18.272Z,985.14
2016-06-17T03:48:18.307Z,985.14
2016-06-17T03:49:18.340Z,985.23
2016-06-17T03:50:18.391Z,985.23
2016-06-17T03:51:18.426Z,985.23
2016-06-17T03:52:18.476Z,985.27
2016-06-17T03:53:18.511Z,985.24
2016-06-17T03:54:18.546Z,985.26
2016-06-17T03:55:18.596Z,985.23
2016-06-17T03:56:18.631Z,985.3
2016-06-17T03:57:18.682Z,985.27
2016-06-17T03:58:18.716Z,985.34
2016-06-17T03:59:18.750Z,985.35
2016-06-17T04:00:18.801Z,985.4
2016-06-17T04:01:18.835Z,985.4
2016-06-17T04:02:18.886Z,985.42
2016-06-17T04:03:18.920Z,985.36
2016-06-17T04:04:18.955Z,985.37
2016-06-17T04:05:19.006Z,985.4
2016-06-17T04:06:19.041Z,985.38
2016-06-17T04:07:19.091Z,985.38
2016-06-17T04:08:19.125Z,985.4
2016-06-17T04:09:19.160Z,985.42
2016-06-17T04:10:19.210Z,985.44
2016-06-17T04:11:19.245Z,985.45
2016-06-17T04:12:19.283Z,985.49
2016-06-17T04:13:19.336Z,985.49
2016-06-17T04:14:19.375Z,985.48
2016-06-17T04:15:19.429Z,985.44
2016-06-17T04:16:19.466Z,985.48
2016-06-17T04:17:19.534Z,985.44
2016-06-17T04:18:19.554Z,985.45
2016-06-17T04:19:19.590Z,985.41
2016-06-17T04:20:19.641Z,985.37
2016-06-17T04:21:19.677Z,985.3
2016-06-17T04:22:19.729Z,985.28
2016-06-17T04:23:19.763Z,985.26
2016-06-17T04:24:19.814Z,985.26
2016-06-17T04:25:19.850Z,985.25
2016-06-17T04:26:19.884Z,985.31
2016-06-17T04:27:19.935Z,985.29
2016-06-17T04:28:19.986Z,985.33
2016-06-17T04:29:20.005Z,985.28
2016-06-17T04:30:20.056Z,985.35
2016-06-17T04:31:20.090Z,985.29
2016-06-17T04:32:20.142Z,985.33
2016-06-17T04:33:20.175Z,985.32
2016-06-17T04:34:20.211Z,985.29
2016-06-17T04:35:20.262Z,985.27
2016-06-17T04:36:20.297Z,985.28
2016-06-17T04:37:20.346Z,985.27
2016-06-17T04:38:20.381Z,985.27
2016-06-17T04:39:20.431Z,985.34
2016-06-17T04:40:20.466Z,985.32
2016-06-17T04:41:20.501Z,985.36
2016-06-17T04:42:20.550Z,985.37
2016-06-17T04:43:20.585Z,985.37
2016-06-17T04:44:20.635Z,985.32
2016-06-17T04:45:20.672Z,985.29
2016-06-17T04:46:20.721Z,985.29
2016-06-17T04:47:20.757Z,985.29
2016-06-17T04:48:20.790Z,985.27
2016-06-17T04:49:20.841Z,985.29
2016-06-17T04:50:20.906Z,985.34
2016-06-17T04:51:21.051Z,985.36
2016-06-17T04:52:20.961Z,985.38
2016-06-17T04:53:21.011Z,985.39
2016-06-17T04:54:21.045Z,985.4
2016-06-17T04:55:21.081Z,985.42
2016-06-17T04:56:21.116Z,985.35
2016-06-17T04:57:21.291Z,985.33
2016-06-17T04:58:21.217Z,985.33
2016-06-17T04:59:21.250Z,985.32
2016-06-17T05:00:21.285Z,985.35
2016-06-17T05:01:21.336Z,985.33
2016-06-17T05:02:21.370Z,985.38
2016-06-17T05:03:21.405Z,985.36
2016-06-17T05:04:21.487Z,985.38
2016-06-17T05:05:21.490Z,985.43
2016-06-17T05:06:21.525Z,985.44
2016-06-17T05:07:21.576Z,985.45
2016-06-17T05:08:21.688Z,985.45
2016-06-17T05:09:21.661Z,985.47
2016-06-17T05:10:21.694Z,985.4
2016-06-17T05:11:21.745Z,985.45
2016-06-17T05:12:21.780Z,985.44
2016-06-17T05:13:21.814Z,985.45
2016-06-17T05:14:21.865Z,985.48
2016-06-17T05:15:21.931Z,985.52
2016-06-17T05:16:21.949Z,985.48
2016-06-17T05:17:21.985Z,985.57
2016-06-17T05:18:22.019Z,985.53
2016-06-17T05:19:22.070Z,985.56
2016-06-17T05:20:22.105Z,985.55
2016-06-17T05:21:22.154Z,985.61
2016-06-17T05:22:22.330Z,985.65
2016-06-17T05:23:22.239Z,985.72
2016-06-17T05:24:22.274Z,985.64
2016-06-17T05:25:22.310Z,985.71
2016-06-17T05:26:22.359Z,985.65
2016-06-17T05:27:22.395Z,985.69
2016-06-17T05:28:22.445Z,985.67
2016-06-17T05:29:22.480Z,985.66
2016-06-17T05:30:22.514Z,985.65
2016-06-17T05:31:22.565Z,985.64
2016-06-17T05:32:22.599Z,985.64
2016-06-17T05:33:22.633Z,985.67
2016-06-17T05:34:22.700Z,985.51
2016-06-17T05:35:22.719Z,985.5
2016-06-17T05:36:22.769Z,985.49
2016-06-17T05:37:22.804Z,985.45
2016-06-17T05:38:22.870Z,985.45
2016-06-17T05:39:22.889Z,985.48
2016-06-17T05:40:22.923Z,985.46
2016-06-17T05:41:22.974Z,985.5
2016-06-17T05:42:23.008Z,985.54
2016-06-17T05:43:23.043Z,985.49
2016-06-17T05:44:23.093Z,985.56
2016-06-17T05:45:23.144Z,985.47
2016-06-17T05:46:23.163Z,985.5
2016-06-17T05:47:23.214Z,985.51
2016-06-17T05:48:23.248Z,985.59
2016-06-17T05:49:23.299Z,985.59
2016-06-17T05:50:23.333Z,985.64
2016-06-17T05:51:23.367Z,985.64
2016-06-17T05:52:23.418Z,985.61
2016-06-17T05:53:23.499Z,985.65
2016-06-17T05:54:23.503Z,985.73
2016-06-17T05:55:23.569Z,985.74
2016-06-17T05:56:23.573Z,985.83
2016-06-17T05:57:23.638Z,985.81
2016-06-17T05:58:23.657Z,985.72
2016-06-17T05:59:23.943Z,985.8
2016-06-17T06:00:23.805Z,985.82
2016-06-17T06:01:23.777Z,985.88
2016-06-17T06:02:23.828Z,985.75
2016-06-17T06:03:23.862Z,985.78
2016-06-17T06:04:23.912Z,985.82
2016-06-17T06:05:23.978Z,985.79
2016-06-17T06:06:24.107Z,985.83
2016-06-17T06:07:24.033Z,985.82
2016-06-17T06:08:24.068Z,985.8
2016-06-17T06:09:24.132Z,985.79
2016-06-17T06:10:24.152Z,985.87
2016-06-17T06:11:24.186Z,985.78
2016-06-17T06:12:24.222Z,985.95
2016-06-17T06:13:24.272Z,985.85
2016-06-17T06:14:24.322Z,985.83
2016-06-17T06:15:24.685Z,985.93
2016-06-17T06:16:24.439Z,985.89
2016-06-17T06:17:24.426Z,985.89
2016-06-17T06:18:24.586Z,986.02
2016-06-17T06:19:24.762Z,985.96
2016-06-17T06:20:24.561Z,985.99
2016-06-17T06:21:24.707Z,985.96
2016-06-17T06:22:24.646Z,986
2016-06-17T06:23:24.681Z,986.04
2016-06-17T06:24:24.732Z,986.13
2016-06-17T06:25:24.782Z,986.14
2016-06-17T06:26:24.864Z,986.06
2016-06-17T06:27:24.836Z,986.22
2016-06-17T06:28:24.887Z,986.11
2016-06-17T06:29:24.989Z,986.16
2016-06-17T06:30:24.982Z,986.2
2016-06-17T06:31:25.053Z,986.22
2016-06-17T06:32:25.062Z,986.23
2016-06-17T06:33:25.116Z,986.25
2016-06-17T06:34:25.184Z,986.29
2016-06-17T06:35:25.236Z,986.33
2016-06-17T06:36:25.241Z,986.34
2016-06-17T06:37:25.276Z,986.34
2016-06-17T06:38:25.345Z,986.36
2016-06-17T06:39:25.411Z,986.36
2016-06-17T06:40:25.416Z,986.35
2016-06-17T06:41:25.763Z,986.34
2016-06-17T06:42:25.658Z,986.39
2016-06-17T06:43:25.537Z,986.33
2016-06-17T06:44:25.822Z,986.39
2016-06-17T06:45:25.669Z,986.32
2016-06-17T06:46:25.672Z,986.4
2016-06-17T06:47:25.801Z,986.39
2016-06-17T06:48:25.820Z,986.38
2016-06-17T06:49:25.776Z,986.38
2016-06-17T06:50:25.811Z,986.35
2016-06-17T06:51:25.893Z,986.33
2016-06-17T06:52:25.912Z,986.38
2016-06-17T06:53:25.947Z,986.41
2016-06-17T06:54:26.044Z,986.43
2016-06-17T06:55:26.033Z,986.46
2016-06-17T06:56:26.097Z,986.5
2016-06-17T06:57:26.101Z,986.51
2016-06-17T06:58:26.152Z,986.56
2016-06-17T06:59:26.311Z,986.5
2016-06-17T07:00:26.237Z,986.5
2016-06-17T07:01:26.381Z,986.51
2016-06-17T07:02:26.306Z,986.49
2016-06-17T07:03:26.355Z,986.53
2016-06-17T07:04:26.422Z,986.51
2016-06-17T07:05:26.442Z,986.63
2016-06-17T07:06:26.477Z,986.58
2016-06-17T07:07:26.541Z,986.58
2016-06-17T07:08:26.561Z,986.64
2016-06-17T07:09:26.642Z,986.69
2016-06-17T07:10:26.630Z,986.67
2016-06-17T07:11:26.853Z,986.71
2016-06-17T07:12:26.825Z,986.71
2016-06-17T07:13:26.782Z,986.79
2016-06-17T07:14:26.832Z,986.77
2016-06-17T07:15:26.960Z,986.78
2016-06-17T07:16:27.073Z,986.85
2016-06-17T07:17:27.046Z,986.89
2016-06-17T07:18:26.954Z,986.88
2016-06-17T07:19:27.147Z,986.87
2016-06-17T07:20:27.039Z,986.89
2016-06-17T07:21:27.247Z,986.93
2016-06-17T07:22:27.422Z,986.9
2016-06-17T07:23:27.426Z,986.87
2016-06-17T07:24:27.242Z,986.89
2016-06-17T07:25:27.448Z,986.88
2016-06-17T07:26:27.592Z,986.92
2016-06-17T07:27:28.377Z,986.96
2016-06-17T07:28:27.537Z,986.93
2016-06-17T07:29:27.477Z,986.98
2016-06-17T07:30:27.904Z,987
2016-06-17T07:31:27.812Z,987.07
2016-06-17T07:32:27.753Z,987.07
2016-06-17T07:33:27.835Z,987.07
2016-06-17T07:34:27.761Z,987.09
2016-06-17T07:35:27.717Z,987.11
2016-06-17T07:36:27.814Z,987.12
2016-06-17T07:37:27.802Z,987.15
2016-06-17T07:38:27.868Z,987.14
2016-06-17T07:39:27.824Z,987.16
2016-06-17T07:40:27.984Z,987.05
2016-06-17T07:41:27.973Z,987.09
2016-06-17T07:42:28.006Z,987.04
2016-06-17T07:43:28.135Z,987.04
2016-06-17T07:44:28.139Z,987.06
2016-06-17T07:45:28.126Z,987.07
2016-06-17T07:46:28.115Z,987.01
2016-06-17T07:47:28.321Z,987.05
2016-06-17T07:48:28.356Z,987.07
2016-06-17T07:49:28.234Z,987.02
2016-06-17T07:50:28.347Z,987.07
2016-06-17T07:51:28.429Z,987.07
2016-06-17T07:52:28.433Z,987.01
2016-06-17T07:53:28.670Z,987.03
2016-06-17T07:54:28.689Z,987.07
2016-06-17T07:55:28.740Z,987.05
2016-06-17T07:56:28.618Z,987.06
2016-06-17T07:57:28.700Z,987.12
2016-06-17T07:58:28.593Z,987.06
2016-06-17T07:59:28.800Z,987.11
2016-06-17T08:05:01.787Z,987.17
2016-06-17T08:06:01.619Z,987.1
2016-06-17T08:07:01.809Z,987.15
2016-06-17T08:08:01.703Z,987.16
2016-06-17T08:09:01.863Z,987.14
2016-06-17T08:10:02.023Z,987.12
2016-06-17T08:11:02.261Z,987.1
2016-06-17T08:12:02.265Z,987.13
2016-06-17T08:13:02.876Z,987.15
2016-06-17T08:14:01.958Z,987.14
2016-06-17T08:15:01.993Z,987.16
2016-06-17T08:16:02.168Z,987.16
2016-06-17T08:17:02.078Z,987.19
2016-06-17T08:18:02.175Z,987.2
2016-06-17T08:19:02.414Z,987.17
2016-06-17T08:20:02.526Z,987.18
2016-06-17T08:21:02.467Z,987.21
2016-06-17T08:22:02.283Z,987.22
2016-06-17T08:23:02.458Z,987.24
2016-06-17T08:24:02.368Z,987.26
2016-06-17T08:25:02.403Z,987.33
2016-06-17T08:26:02.500Z,987.27
2016-06-17T08:27:03.253Z,987.33
2016-06-17T08:28:02.554Z,987.31
2016-06-17T08:29:02.573Z,987.33
2016-06-17T08:30:02.608Z,987.39
2016-06-17T08:31:02.658Z,987.44
2016-06-17T08:32:03.115Z,987.44
2016-06-17T08:33:02.963Z,987.36
2016-06-17T08:34:02.810Z,987.39
2016-06-17T08:35:02.939Z,987.52
2016-06-17T08:36:02.972Z,987.43
2016-06-17T08:37:03.023Z,987.44
2016-06-17T08:38:03.011Z,987.65
2016-06-17T08:39:03.233Z,987.41
2016-06-17T08:40:03.081Z,987.46
2016-06-17T08:41:03.099Z,987.44
2016-06-17T08:42:03.446Z,987.49
2016-06-17T08:43:03.169Z,987.5
2016-06-17T08:44:03.187Z,987.54
2016-06-17T08:44:31.406Z,987.66
2016-06-17T08:45:31.285Z,987.64
2016-06-17T08:46:31.429Z,987.64
2016-06-17T08:47:31.668Z,987.65
2016-06-17T08:48:31.484Z,987.67
2016-06-17T08:49:31.691Z,987.69
2016-06-17T08:50:31.647Z,987.68
2016-06-17T08:51:31.620Z,987.69
2016-06-17T08:52:31.686Z,987.73
2016-06-17T08:53:31.643Z,987.7
2016-06-17T08:54:31.676Z,987.79
2016-06-17T08:55:31.712Z,987.75
2016-06-17T08:56:31.763Z,987.75
2016-06-17T08:57:32.062Z,987.83
2016-06-17T08:58:31.833Z,987.81
2016-06-17T08:59:31.866Z,987.76
2016-06-17T09:00:31.917Z,987.81
2016-06-17T09:01:32.186Z,987.87
2016-06-17T09:02:32.096Z,987.83
2016-06-17T09:03:32.053Z,987.86
2016-06-17T09:04:32.212Z,987.83
2016-06-17T09:05:32.295Z,987.9
2016-06-17T09:06:32.313Z,987.86
2016-06-17T09:07:32.207Z,987.94
2016-06-17T09:08:32.258Z,987.94
2016-06-17T09:16:32.642Z,988.13
2016-06-17T09:17:32.615Z,988.1
2016-06-17T09:24:29.879Z,988.07
2016-06-17T09:25:30.085Z,988.19
2016-06-17T09:26:29.995Z,988.17
2016-06-17T09:27:30.249Z,988.22
2016-06-17T09:28:29.955Z,988.25
2016-06-17T09:29:30.053Z,988.19
2016-06-17T09:30:30.259Z,988.25
2016-06-17T09:31:30.059Z,988.26
2016-06-17T09:32:30.110Z,988.29
2016-06-17T09:33:30.270Z,988.29
2016-06-17T09:34:30.507Z,988.3
2016-06-17T09:35:30.230Z,988.34
2016-06-17T09:36:30.405Z,988.42
2016-06-17T09:37:30.705Z,988.43
2016-06-17T09:38:30.396Z,988.39
2016-06-17T09:39:30.385Z,988.43
2016-06-17T09:40:30.544Z,988.47
2016-06-17T09:41:30.471Z,988.5
2016-06-17T09:42:30.522Z,988.49
2016-06-17T09:43:30.558Z,988.58
2016-06-17T09:44:30.610Z,988.62
2016-06-17T09:45:30.802Z,988.62
2016-06-17T09:46:30.681Z,988.66
2016-06-17T09:47:30.779Z,988.64
2016-06-17T09:48:30.766Z,988.69
2016-06-17T09:49:30.818Z,988.72
2016-06-17T09:50:30.899Z,988.71
2016-06-17T09:51:30.903Z,988.78
2016-06-17T09:52:31.000Z,988.77
2016-06-17T09:53:30.989Z,988.77
2016-06-17T09:54:31.023Z,988.81
2016-06-17T09:55:31.121Z,988.81
2016-06-17T09:56:31.108Z,988.92
2016-06-17T09:57:31.158Z,988.89
2016-06-17T09:58:31.196Z,988.86
2016-06-17T09:59:31.327Z,988.89
2016-06-17T10:00:31.285Z,988.85
2016-06-17T10:01:31.433Z,988.93
2016-06-17T10:02:31.407Z,988.95
2016-06-17T10:03:31.443Z,989
2016-06-17T10:04:31.463Z,989.02
2016-06-17T10:05:31.514Z,988.97
2016-06-17T10:06:31.565Z,988.97
2016-06-17T10:07:31.600Z,988.98
2016-06-17T10:08:31.635Z,989.11
2016-06-17T10:09:31.780Z,989.04
2016-06-17T10:10:31.722Z,989.12
2016-06-17T10:11:31.773Z,989.13
2016-06-17T10:12:31.885Z,989.07
2016-06-17T10:13:31.858Z,989.11
2016-06-17T10:14:31.892Z,989.15
2016-06-17T10:15:31.944Z,989.26
2016-06-17T10:16:31.995Z,989.25
2016-06-17T10:17:32.171Z,989.27
2016-06-17T10:18:32.237Z,989.32
2016-06-17T10:19:32.116Z,989.35
2016-06-17T10:20:32.151Z,989.35
2016-06-17T10:21:32.218Z,989.3
2016-06-17T10:22:32.331Z,989.33
2016-06-17T10:23:32.288Z,989.36
2016-06-17T10:24:32.324Z,989.54
2016-06-17T10:25:32.467Z,989.51
2016-06-17T10:26:32.408Z,989.45
2016-06-17T10:27:32.552Z,989.5
2016-06-17T10:28:33.119Z,989.48
2016-06-17T10:29:32.544Z,989.51
2016-06-17T10:30:33.109Z,989.53
2016-06-17T10:31:33.066Z,989.52
2016-06-17T10:32:32.929Z,989.61
2016-06-17T10:33:32.697Z,989.6
2016-06-17T10:34:32.826Z,989.62
2016-06-17T10:35:32.862Z,989.6
2016-06-17T10:36:32.833Z,989.61
2016-06-17T10:37:32.869Z,989.59
2016-06-17T10:38:32.934Z,989.6
2016-06-17T10:39:32.954Z,989.64
2016-06-17T10:40:32.988Z,989.67
2016-06-17T10:41:33.038Z,989.69
2016-06-17T10:42:33.089Z,989.67
2016-06-17T10:43:33.124Z,989.74
2016-06-17T10:44:33.158Z,989.73
2016-06-17T10:45:33.208Z,989.78
2016-06-17T10:46:33.243Z,989.8
2016-06-17T10:47:33.278Z,989.84
2016-06-17T10:48:33.328Z,989.81
2016-06-17T10:49:33.489Z,989.78
2016-06-17T10:50:33.430Z,989.86
2016-06-17T10:51:33.450Z,989.82
2016-06-17T10:52:33.501Z,989.87
2016-06-17T10:53:33.536Z,989.89
2016-06-17T10:54:33.604Z,989.85
2016-06-17T10:55:33.622Z,989.85
2016-06-17T10:56:33.813Z,989.9
2016-06-17T10:57:33.972Z,989.93
2016-06-17T10:58:33.772Z,990
2016-06-17T10:59:33.791Z,989.94
2016-06-17T11:00:33.827Z,989.93
2016-06-17T11:01:33.861Z,989.9
2016-06-17T11:02:34.115Z,990.01
2016-06-17T11:03:33.962Z,989.98
2016-06-17T11:04:33.996Z,990.02
2016-06-17T11:05:34.048Z,990
2016-06-17T11:06:34.097Z,990.2
2016-06-17T11:07:34.207Z,990.1
2016-06-17T11:08:34.398Z,989.99
2016-06-17T11:09:34.275Z,990.14
2016-06-17T11:10:34.293Z,990.12
2016-06-17T11:11:34.281Z,990.13
2016-06-17T11:12:34.315Z,990.13
2016-06-17T11:13:34.771Z,990.09
2016-06-17T11:14:34.399Z,990.17
2016-06-17T11:15:34.449Z,990.15
2016-06-17T11:16:34.483Z,990.23
2016-06-17T11:17:34.534Z,990.23
2016-06-17T11:18:34.615Z,990.2
2016-06-17T11:19:34.619Z,990.21
2016-06-17T11:20:34.654Z,990.2
2016-06-17T11:21:34.703Z,990.21
2016-06-17T11:22:34.754Z,990.29
2016-06-17T11:23:34.789Z,990.32
2016-06-17T11:24:34.824Z,990.34
2016-06-17T11:25:35.562Z,990.33
2016-06-17T11:26:34.909Z,990.39
2016-06-17T11:27:34.959Z,990.34
2016-06-17T11:28:35.041Z,990.36
2016-06-17T11:29:35.059Z,990.41
2016-06-17T11:30:35.079Z,990.44
2016-06-17T11:31:35.113Z,990.44
2016-06-17T11:32:35.163Z,990.42
2016-06-17T11:33:35.199Z,990.42
2016-06-17T11:34:35.265Z,990.38
2016-06-17T11:35:35.283Z,990.45
2016-06-17T11:36:35.350Z,990.51
2016-06-17T11:37:35.369Z,990.48
2016-06-17T11:38:35.419Z,990.54
2016-06-17T11:39:35.455Z,990.5
2016-06-17T11:40:35.504Z,990.53
2016-06-17T11:41:35.539Z,990.51
2016-06-17T11:42:35.588Z,990.63
2016-06-17T11:43:35.622Z,990.55
2016-06-17T11:44:35.907Z,990.53
2016-06-17T11:45:35.707Z,990.53
2016-06-17T11:46:35.757Z,990.54
2016-06-17T11:47:35.790Z,990.57
2016-06-17T11:48:35.841Z,990.59
2016-06-17T11:49:35.891Z,990.6
2016-06-17T11:50:35.925Z,990.63
2016-06-17T11:51:35.960Z,990.65
2016-06-17T11:52:36.010Z,990.68
2016-06-17T11:53:36.076Z,990.68
2016-06-17T11:54:36.095Z,990.79
2016-06-17T11:55:36.131Z,990.69
2016-06-17T11:56:36.181Z,990.71
2016-06-17T11:57:36.231Z,990.78
2016-06-17T11:58:36.266Z,990.84
2016-06-17T11:59:36.300Z,990.75
2016-06-17T12:00:36.351Z,990.87
2016-06-17T12:01:36.416Z,990.96
2016-06-17T12:02:36.436Z,990.87
2016-06-17T12:03:36.502Z,990.95
2016-06-17T12:04:36.537Z,991.1
2016-06-17T12:05:36.587Z,990.76
2016-06-17T12:06:36.622Z,990.81
2016-06-17T12:07:36.672Z,990.92
2016-06-17T12:08:36.707Z,990.86
2016-06-17T12:09:36.757Z,990.77
2016-06-17T12:10:36.808Z,990.86
2016-06-17T12:11:36.842Z,990.87
2016-06-17T12:12:36.892Z,990.75
2016-06-17T12:13:36.943Z,990.78
2016-06-17T12:14:36.978Z,990.82
2016-06-17T12:15:37.016Z,990.8
2016-06-17T12:16:37.069Z,990.81
2016-06-17T12:17:37.122Z,990.89
2016-06-17T12:18:37.176Z,990.81
2016-06-17T12:19:37.211Z,990.93
2016-06-17T12:20:37.264Z,990.95
2016-06-17T12:21:37.299Z,991.04
2016-06-17T12:22:37.335Z,991.04
2016-06-17T12:23:37.418Z,991.07
2016-06-17T12:24:37.437Z,991.12
2016-06-17T12:25:37.472Z,991.14
2016-06-17T12:26:37.523Z,991.1
2016-06-17T12:27:37.559Z,991.11
2016-06-17T12:28:37.609Z,991.21
2016-06-17T12:29:37.660Z,991.15
2016-06-17T12:30:37.695Z,991.23
2016-06-17T12:31:38.089Z,991.19
2016-06-17T12:32:37.779Z,991.3
2016-06-17T12:33:37.830Z,991.26
2016-06-17T12:34:37.880Z,991.34
2016-06-17T12:35:38.243Z,991.35
2016-06-17T12:36:37.934Z,991.36
2016-06-17T12:37:38.000Z,991.37
2016-06-17T12:38:38.050Z,991.41
2016-06-17T12:39:38.226Z,991.4
2016-06-17T12:40:38.120Z,991.45
2016-06-17T12:41:38.233Z,991.45
2016-06-17T12:42:38.204Z,991.45
2016-06-17T12:43:38.411Z,991.47
2016-06-17T12:44:38.274Z,991.42
2016-06-17T12:45:38.309Z,991.43
2016-06-17T12:46:38.359Z,991.4
2016-06-17T12:47:38.393Z,991.35
2016-06-17T12:48:38.444Z,991.41